sensor_id;sensor_type;location;lat;lon;timestamp;temperature;humidity
24836;DHT22;12915;57.650;12.044;2023-12-28T00:00:16;1.70;99.90
24836;DHT22;12915;57.650;12.044;2023-12-28T00:02:42;1.60;99.90
24836;DHT22;12915;57.650;12.044;2023-12-28T00:05:08;1.40;99.90
24836;DHT22;12915;57.650;12.044;2023-12-28T00:07:33;1.70;99.90
24836;DHT22;12915;57.650;12.044;2023-12-28T00:09:59;1.80;99.90
24836;DHT22;12915;57.650;12.044;2023-12-28T00:12:25;1.70;99.90
24836;DHT22;12915;57.650;12.044;2023-12-28T00:14:50;1.90;99.90
24836;DHT22;12915;57.650;12.044;2023-12-28T00:17:16;1.90;99.90
24836;DHT22;12915;57.650;12.044;2023-12-28T00:19:42;1.90;99.90
24836;DHT22;12915;57.650;12.044;2023-12-28T00:22:08;2.10;99.90
24836;DHT22;12915;57.650;12.044;2023-12-28T00:24:33;2.10;99.90
24836;DHT22;12915;57.650;12.044;2023-12-28T00:26:59;2.00;99.90
24836;DHT22;12915;57.650;12.044;2023-12-28T00:29:24;1.70;99.90
24836;DHT22;12915;57.650;12.044;2023-12-28T00:31:50;1.70;99.90
24836;DHT22;12915;57.650;12.044;2023-12-28T00:34:16;1.60;99.90
24836;DHT22;12915;57.650;12.044;2023-12-28T00:36:42;1.30;99.90
24836;DHT22;12915;57.650;12.044;2023-12-28T00:39:07;1.30;99.90
24836;DHT22;12915;57.650;12.044;2023-12-28T00:41:33;1.50;99.90
24836;DHT22;12915;57.650;12.044;2023-12-28T00:43:59;1.60;99.90
24836;DHT22;12915;57.650;12.044;2023-12-28T00:46:26;1.60;99.90
24836;DHT22;12915;57.650;12.044;2023-12-28T00:48:51;1.40;99.90
24836;DHT22;12915;57.650;12.044;2023-12-28T00:51:17;1.30;99.90
24836;DHT22;12915;57.650;12.044;2023-12-28T00:53:42;1.20;99.90
24836;DHT22;12915;57.650;12.044;2023-12-28T00:56:09;0.90;99.90
24836;DHT22;12915;57.650;12.044;2023-12-28T00:58:41;0.80;99.90
24836;DHT22;12915;57.650;12.044;2023-12-28T01:01:09;0.70;99.90
24836;DHT22;12915;57.650;12.044;2023-12-28T01:03:34;1.00;99.90
24836;DHT22;12915;57.650;12.044;2023-12-28T01:06:00;1.10;99.90
24836;DHT22;12915;57.650;12.044;2023-12-28T01:08:26;1.30;99.90
24836;DHT22;12915;57.650;12.044;2023-12-28T01:10:51;1.20;99.90
24836;DHT22;12915;57.650;12.044;2023-12-28T01:13:17;1.40;99.90
24836;DHT22;12915;57.650;12.044;2023-12-28T01:15:43;1.40;99.90
24836;DHT22;12915;57.650;12.044;2023-12-28T01:18:09;1.40;99.90
24836;DHT22;12915;57.650;12.044;2023-12-28T01:20:35;1.20;99.90
24836;DHT22;12915;57.650;12.044;2023-12-28T01:23:01;1.00;99.90
24836;DHT22;12915;57.650;12.044;2023-12-28T01:25:27;1.20;99.90
24836;DHT22;12915;57.650;12.044;2023-12-28T01:27:53;1.40;99.90
24836;DHT22;12915;57.650;12.044;2023-12-28T01:30:18;1.20;99.90
24836;DHT22;12915;57.650;12.044;2023-12-28T01:32:44;1.30;99.90
24836;DHT22;12915;57.650;12.044;2023-12-28T01:35:09;1.80;99.90
24836;DHT22;12915;57.650;12.044;2023-12-28T01:37:35;1.60;99.90
24836;DHT22;12915;57.650;12.044;2023-12-28T01:40:01;1.50;99.90
24836;DHT22;12915;57.650;12.044;2023-12-28T01:42:27;1.50;99.90
24836;DHT22;12915;57.650;12.044;2023-12-28T01:44:56;1.50;99.90
24836;DHT22;12915;57.650;12.044;2023-12-28T01:47:21;1.50;99.90
24836;DHT22;12915;57.650;12.044;2023-12-28T01:49:47;1.60;99.90
24836;DHT22;12915;57.650;12.044;2023-12-28T01:52:12;1.60;99.90
24836;DHT22;12915;57.650;12.044;2023-12-28T01:54:38;1.50;99.90
24836;DHT22;12915;57.650;12.044;2023-12-28T01:57:05;1.40;99.90
24836;DHT22;12915;57.650;12.044;2023-12-28T01:59:31;1.50;99.90
24836;DHT22;12915;57.650;12.044;2023-12-28T02:01:58;1.60;99.90
24836;DHT22;12915;57.650;12.044;2023-12-28T02:04:23;1.60;99.90
24836;DHT22;12915;57.650;12.044;2023-12-28T02:06:57;1.60;99.90
24836;DHT22;12915;57.650;12.044;2023-12-28T02:09:24;1.60;99.90
24836;DHT22;12915;57.650;12.044;2023-12-28T02:11:49;1.60;99.90
24836;DHT22;12915;57.650;12.044;2023-12-28T02:14:15;1.60;99.90
24836;DHT22;12915;57.650;12.044;2023-12-28T02:16:46;1.60;99.90
24836;DHT22;12915;57.650;12.044;2023-12-28T02:22:02;1.60;99.90
24836;DHT22;12915;57.650;12.044;2023-12-28T02:24:29;1.70;99.90
24836;DHT22;12915;57.650;12.044;2023-12-28T02:26:54;1.70;99.90
24836;DHT22;12915;57.650;12.044;2023-12-28T02:29:20;1.70;99.90
24836;DHT22;12915;57.650;12.044;2023-12-28T02:31:51;1.70;99.90
24836;DHT22;12915;57.650;12.044;2023-12-28T02:34:29;1.70;99.90
24836;DHT22;12915;57.650;12.044;2023-12-28T02:36:57;1.70;99.90
24836;DHT22;12915;57.650;12.044;2023-12-28T02:39:25;1.90;99.90
24836;DHT22;12915;57.650;12.044;2023-12-28T02:41:51;1.90;99.90
24836;DHT22;12915;57.650;12.044;2023-12-28T02:44:18;1.80;99.90
24836;DHT22;12915;57.650;12.044;2023-12-28T02:46:44;1.80;99.90
24836;DHT22;12915;57.650;12.044;2023-12-28T02:49:09;1.80;99.90
24836;DHT22;12915;57.650;12.044;2023-12-28T02:51:37;1.60;99.90
24836;DHT22;12915;57.650;12.044;2023-12-28T02:54:03;1.60;99.90
24836;DHT22;12915;57.650;12.044;2023-12-28T02:56:29;1.60;99.90
24836;DHT22;12915;57.650;12.044;2023-12-28T02:58:55;1.80;99.90
24836;DHT22;12915;57.650;12.044;2023-12-28T03:01:20;2.00;99.90
24836;DHT22;12915;57.650;12.044;2023-12-28T03:03:46;2.10;99.90
24836;DHT22;12915;57.650;12.044;2023-12-28T03:06:12;2.10;99.90
24836;DHT22;12915;57.650;12.044;2023-12-28T03:08:37;2.00;99.90
24836;DHT22;12915;57.650;12.044;2023-12-28T03:11:03;1.90;99.90
24836;DHT22;12915;57.650;12.044;2023-12-28T03:13:28;1.70;99.90
24836;DHT22;12915;57.650;12.044;2023-12-28T03:15:55;1.90;99.90
24836;DHT22;12915;57.650;12.044;2023-12-28T03:18:20;1.90;99.90
24836;DHT22;12915;57.650;12.044;2023-12-28T03:20:46;1.90;99.90
24836;DHT22;12915;57.650;12.044;2023-12-28T03:23:12;1.90;99.90
24836;DHT22;12915;57.650;12.044;2023-12-28T03:25:41;2.00;99.90
24836;DHT22;12915;57.650;12.044;2023-12-28T03:28:09;1.90;99.90
24836;DHT22;12915;57.650;12.044;2023-12-28T03:30:35;1.90;99.90
24836;DHT22;12915;57.650;12.044;2023-12-28T03:33:01;2.00;99.90
24836;DHT22;12915;57.650;12.044;2023-12-28T03:35:26;1.90;99.90
24836;DHT22;12915;57.650;12.044;2023-12-28T03:37:52;2.10;99.90
24836;DHT22;12915;57.650;12.044;2023-12-28T03:40:17;2.40;99.90
24836;DHT22;12915;57.650;12.044;2023-12-28T03:42:43;2.50;99.90
24836;DHT22;12915;57.650;12.044;2023-12-28T03:45:09;2.60;99.90
24836;DHT22;12915;57.650;12.044;2023-12-28T03:47:41;2.60;99.90
24836;DHT22;12915;57.650;12.044;2023-12-28T03:50:08;2.50;99.90
24836;DHT22;12915;57.650;12.044;2023-12-28T03:52:33;2.40;99.90
24836;DHT22;12915;57.650;12.044;2023-12-28T03:54:59;2.50;99.90
24836;DHT22;12915;57.650;12.044;2023-12-28T03:57:25;2.40;99.90
24836;DHT22;12915;57.650;12.044;2023-12-28T03:59:51;2.30;99.90
24836;DHT22;12915;57.650;12.044;2023-12-28T04:02:19;2.40;99.90
24836;DHT22;12915;57.650;12.044;2023-12-28T04:04:45;2.40;99.90
24836;DHT22;12915;57.650;12.044;2023-12-28T04:07:10;2.20;99.90
24836;DHT22;12915;57.650;12.044;2023-12-28T04:09:36;2.30;99.90
24836;DHT22;12915;57.650;12.044;2023-12-28T04:12:02;2.30;99.90
24836;DHT22;12915;57.650;12.044;2023-12-28T04:14:28;2.30;99.90
24836;DHT22;12915;57.650;12.044;2023-12-28T04:16:53;2.30;99.90
24836;DHT22;12915;57.650;12.044;2023-12-28T04:19:19;2.40;99.90
24836;DHT22;12915;57.650;12.044;2023-12-28T04:21:45;2.50;99.90
24836;DHT22;12915;57.650;12.044;2023-12-28T04:24:10;2.50;99.90
24836;DHT22;12915;57.650;12.044;2023-12-28T04:26:39;2.40;99.90
24836;DHT22;12915;57.650;12.044;2023-12-28T04:29:04;2.50;99.90
24836;DHT22;12915;57.650;12.044;2023-12-28T04:31:31;2.50;99.90
24836;DHT22;12915;57.650;12.044;2023-12-28T04:33:56;2.50;99.90
24836;DHT22;12915;57.650;12.044;2023-12-28T04:36:22;2.60;99.90
24836;DHT22;12915;57.650;12.044;2023-12-28T04:38:48;2.60;99.90
24836;DHT22;12915;57.650;12.044;2023-12-28T04:41:13;2.70;99.90
24836;DHT22;12915;57.650;12.044;2023-12-28T04:43:39;2.70;99.90
24836;DHT22;12915;57.650;12.044;2023-12-28T04:46:05;2.80;99.90
24836;DHT22;12915;57.650;12.044;2023-12-28T04:48:31;2.80;99.90
24836;DHT22;12915;57.650;12.044;2023-12-28T04:50:57;2.90;99.90
24836;DHT22;12915;57.650;12.044;2023-12-28T04:53:23;2.80;99.90
24836;DHT22;12915;57.650;12.044;2023-12-28T04:55:48;2.90;99.90
24836;DHT22;12915;57.650;12.044;2023-12-28T04:58:14;3.00;99.90
24836;DHT22;12915;57.650;12.044;2023-12-28T05:00:40;3.20;99.90
24836;DHT22;12915;57.650;12.044;2023-12-28T05:03:06;3.20;99.90
24836;DHT22;12915;57.650;12.044;2023-12-28T05:05:32;3.30;99.90
24836;DHT22;12915;57.650;12.044;2023-12-28T05:07:58;3.50;99.90
24836;DHT22;12915;57.650;12.044;2023-12-28T05:10:23;3.50;99.90
24836;DHT22;12915;57.650;12.044;2023-12-28T05:12:49;3.40;99.90
24836;DHT22;12915;57.650;12.044;2023-12-28T05:15:14;3.40;99.90
24836;DHT22;12915;57.650;12.044;2023-12-28T05:17:41;3.40;99.90
24836;DHT22;12915;57.650;12.044;2023-12-28T05:20:07;3.50;99.90
24836;DHT22;12915;57.650;12.044;2023-12-28T05:22:33;3.70;99.90
24836;DHT22;12915;57.650;12.044;2023-12-28T05:24:58;3.60;99.90
24836;DHT22;12915;57.650;12.044;2023-12-28T05:27:24;3.60;99.90
24836;DHT22;12915;57.650;12.044;2023-12-28T05:29:50;3.70;99.90
24836;DHT22;12915;57.650;12.044;2023-12-28T05:32:15;3.80;99.90
24836;DHT22;12915;57.650;12.044;2023-12-28T05:34:41;3.90;99.90
24836;DHT22;12915;57.650;12.044;2023-12-28T05:37:07;4.00;99.90
24836;DHT22;12915;57.650;12.044;2023-12-28T05:39:43;4.10;99.90
24836;DHT22;12915;57.650;12.044;2023-12-28T05:42:09;4.00;99.90
24836;DHT22;12915;57.650;12.044;2023-12-28T05:44:34;4.20;99.90
24836;DHT22;12915;57.650;12.044;2023-12-28T05:47:00;4.20;99.90
24836;DHT22;12915;57.650;12.044;2023-12-28T05:49:25;4.40;99.90
24836;DHT22;12915;57.650;12.044;2023-12-28T05:51:53;4.40;99.90
24836;DHT22;12915;57.650;12.044;2023-12-28T05:54:19;4.50;99.90
24836;DHT22;12915;57.650;12.044;2023-12-28T05:56:45;4.60;99.90
24836;DHT22;12915;57.650;12.044;2023-12-28T05:59:10;4.50;99.90
24836;DHT22;12915;57.650;12.044;2023-12-28T06:01:43;4.70;99.90
24836;DHT22;12915;57.650;12.044;2023-12-28T06:04:09;4.80;99.90
24836;DHT22;12915;57.650;12.044;2023-12-28T06:06:34;5.10;99.90
24836;DHT22;12915;57.650;12.044;2023-12-28T06:09:01;5.30;99.90
24836;DHT22;12915;57.650;12.044;2023-12-28T06:11:28;5.40;99.90
24836;DHT22;12915;57.650;12.044;2023-12-28T06:13:54;5.40;99.90
24836;DHT22;12915;57.650;12.044;2023-12-28T06:16:23;5.50;99.90
24836;DHT22;12915;57.650;12.044;2023-12-28T06:18:48;5.60;99.90
24836;DHT22;12915;57.650;12.044;2023-12-28T06:21:14;5.60;99.90
24836;DHT22;12915;57.650;12.044;2023-12-28T06:23:40;5.70;99.90
24836;DHT22;12915;57.650;12.044;2023-12-28T06:26:06;5.80;99.90
24836;DHT22;12915;57.650;12.044;2023-12-28T06:28:32;5.80;99.90
24836;DHT22;12915;57.650;12.044;2023-12-28T06:30:58;5.80;99.90
24836;DHT22;12915;57.650;12.044;2023-12-28T06:33:27;5.80;99.90
24836;DHT22;12915;57.650;12.044;2023-12-28T06:35:53;5.90;99.90
24836;DHT22;12915;57.650;12.044;2023-12-28T06:38:19;6.10;99.90
24836;DHT22;12915;57.650;12.044;2023-12-28T06:40:45;6.10;99.90
24836;DHT22;12915;57.650;12.044;2023-12-28T06:43:10;6.20;99.90
24836;DHT22;12915;57.650;12.044;2023-12-28T06:45:36;6.20;99.90
24836;DHT22;12915;57.650;12.044;2023-12-28T06:48:01;6.30;99.90
24836;DHT22;12915;57.650;12.044;2023-12-28T06:50:27;6.30;99.90
24836;DHT22;12915;57.650;12.044;2023-12-28T06:52:53;6.40;99.90
24836;DHT22;12915;57.650;12.044;2023-12-28T06:55:18;6.40;99.90
24836;DHT22;12915;57.650;12.044;2023-12-28T06:57:44;6.60;99.90
24836;DHT22;12915;57.650;12.044;2023-12-28T07:00:10;6.60;99.90
24836;DHT22;12915;57.650;12.044;2023-12-28T07:02:36;6.70;99.90
24836;DHT22;12915;57.650;12.044;2023-12-28T07:05:01;6.60;99.90
24836;DHT22;12915;57.650;12.044;2023-12-28T07:07:29;6.70;99.90
24836;DHT22;12915;57.650;12.044;2023-12-28T07:09:54;6.80;99.90
24836;DHT22;12915;57.650;12.044;2023-12-28T07:18:42;7.10;99.90
24836;DHT22;12915;57.650;12.044;2023-12-28T07:21:07;7.20;99.90
24836;DHT22;12915;57.650;12.044;2023-12-28T07:23:39;7.20;99.90
24836;DHT22;12915;57.650;12.044;2023-12-28T07:26:04;7.20;99.90
24836;DHT22;12915;57.650;12.044;2023-12-28T07:28:30;7.10;99.90
24836;DHT22;12915;57.650;12.044;2023-12-28T07:30:56;7.00;99.90
24836;DHT22;12915;57.650;12.044;2023-12-28T07:33:22;7.00;99.90
24836;DHT22;12915;57.650;12.044;2023-12-28T07:35:47;7.10;99.90
24836;DHT22;12915;57.650;12.044;2023-12-28T07:38:13;7.10;99.90
24836;DHT22;12915;57.650;12.044;2023-12-28T07:40:39;7.00;99.90
24836;DHT22;12915;57.650;12.044;2023-12-28T07:43:05;7.00;99.90
24836;DHT22;12915;57.650;12.044;2023-12-28T07:45:30;6.90;99.90
24836;DHT22;12915;57.650;12.044;2023-12-28T07:47:58;6.90;99.90
24836;DHT22;12915;57.650;12.044;2023-12-28T07:50:24;6.90;99.90
24836;DHT22;12915;57.650;12.044;2023-12-28T07:52:50;7.00;99.90
24836;DHT22;12915;57.650;12.044;2023-12-28T07:55:16;7.20;99.90
24836;DHT22;12915;57.650;12.044;2023-12-28T07:57:42;7.40;99.90
24836;DHT22;12915;57.650;12.044;2023-12-28T08:00:07;7.40;99.90
24836;DHT22;12915;57.650;12.044;2023-12-28T08:02:34;7.50;99.90
24836;DHT22;12915;57.650;12.044;2023-12-28T08:04:59;7.30;99.90
24836;DHT22;12915;57.650;12.044;2023-12-28T08:07:25;7.10;99.90
24836;DHT22;12915;57.650;12.044;2023-12-28T08:09:51;6.90;99.90
24836;DHT22;12915;57.650;12.044;2023-12-28T08:12:16;6.80;99.90
24836;DHT22;12915;57.650;12.044;2023-12-28T08:14:43;6.90;99.90
24836;DHT22;12915;57.650;12.044;2023-12-28T08:17:09;7.00;99.90
24836;DHT22;12915;57.650;12.044;2023-12-28T08:19:35;7.10;99.90
24836;DHT22;12915;57.650;12.044;2023-12-28T08:22:00;7.10;99.90
24836;DHT22;12915;57.650;12.044;2023-12-28T08:24:26;7.20;99.90
24836;DHT22;12915;57.650;12.044;2023-12-28T08:26:52;7.20;99.90
24836;DHT22;12915;57.650;12.044;2023-12-28T08:29:18;7.10;99.90
24836;DHT22;12915;57.650;12.044;2023-12-28T08:31:44;7.00;99.90
24836;DHT22;12915;57.650;12.044;2023-12-28T08:34:09;7.00;99.90
24836;DHT22;12915;57.650;12.044;2023-12-28T08:36:35;6.80;99.90
24836;DHT22;12915;57.650;12.044;2023-12-28T08:39:01;6.90;99.90
24836;DHT22;12915;57.650;12.044;2023-12-28T08:41:27;6.70;99.90
24836;DHT22;12915;57.650;12.044;2023-12-28T08:43:53;6.60;99.90
24836;DHT22;12915;57.650;12.044;2023-12-28T08:46:22;6.60;99.90
24836;DHT22;12915;57.650;12.044;2023-12-28T08:48:50;6.70;99.90
24836;DHT22;12915;57.650;12.044;2023-12-28T08:51:19;6.70;99.90
24836;DHT22;12915;57.650;12.044;2023-12-28T08:53:51;6.90;99.90
24836;DHT22;12915;57.650;12.044;2023-12-28T08:56:19;6.80;99.90
24836;DHT22;12915;57.650;12.044;2023-12-28T08:58:45;6.80;99.90
24836;DHT22;12915;57.650;12.044;2023-12-28T09:01:30;6.80;99.90
24836;DHT22;12915;57.650;12.044;2023-12-28T09:03:56;6.70;99.90
24836;DHT22;12915;57.650;12.044;2023-12-28T09:06:22;6.80;99.90
24836;DHT22;12915;57.650;12.044;2023-12-28T09:08:49;6.90;99.90
24836;DHT22;12915;57.650;12.044;2023-12-28T09:11:16;6.90;99.90
24836;DHT22;12915;57.650;12.044;2023-12-28T09:13:42;6.80;99.90
24836;DHT22;12915;57.650;12.044;2023-12-28T09:16:11;6.80;99.90
24836;DHT22;12915;57.650;12.044;2023-12-28T09:18:38;6.80;99.90
24836;DHT22;12915;57.650;12.044;2023-12-28T09:21:04;6.70;99.90
24836;DHT22;12915;57.650;12.044;2023-12-28T09:23:31;6.90;99.90
24836;DHT22;12915;57.650;12.044;2023-12-28T09:25:57;7.00;99.90
24836;DHT22;12915;57.650;12.044;2023-12-28T09:28:23;7.00;99.90
24836;DHT22;12915;57.650;12.044;2023-12-28T09:30:49;7.10;99.90
24836;DHT22;12915;57.650;12.044;2023-12-28T09:33:15;7.00;99.90
24836;DHT22;12915;57.650;12.044;2023-12-28T09:35:41;6.90;99.90
24836;DHT22;12915;57.650;12.044;2023-12-28T09:38:07;7.10;99.90
24836;DHT22;12915;57.650;12.044;2023-12-28T09:40:37;7.20;99.90
24836;DHT22;12915;57.650;12.044;2023-12-28T09:43:22;7.20;99.90
24836;DHT22;12915;57.650;12.044;2023-12-28T09:45:49;7.20;99.90
24836;DHT22;12915;57.650;12.044;2023-12-28T09:48:17;7.30;99.90
24836;DHT22;12915;57.650;12.044;2023-12-28T09:50:53;7.30;99.90
24836;DHT22;12915;57.650;12.044;2023-12-28T09:53:23;7.60;99.90
24836;DHT22;12915;57.650;12.044;2023-12-28T09:55:49;7.50;99.90
24836;DHT22;12915;57.650;12.044;2023-12-28T09:58:17;7.40;99.90
24836;DHT22;12915;57.650;12.044;2023-12-28T10:00:47;7.20;99.90
24836;DHT22;12915;57.650;12.044;2023-12-28T10:03:13;7.10;99.90
24836;DHT22;12915;57.650;12.044;2023-12-28T10:05:43;7.00;99.90
24836;DHT22;12915;57.650;12.044;2023-12-28T10:08:13;7.10;99.90
24836;DHT22;12915;57.650;12.044;2023-12-28T10:10:40;7.00;99.90
24836;DHT22;12915;57.650;12.044;2023-12-28T10:13:07;7.00;99.90
24836;DHT22;12915;57.650;12.044;2023-12-28T10:15:35;7.00;99.90
24836;DHT22;12915;57.650;12.044;2023-12-28T10:18:00;7.00;99.90
24836;DHT22;12915;57.650;12.044;2023-12-28T10:20:30;7.10;99.90
24836;DHT22;12915;57.650;12.044;2023-12-28T10:22:57;7.00;99.90
24836;DHT22;12915;57.650;12.044;2023-12-28T10:25:23;7.20;99.90
24836;DHT22;12915;57.650;12.044;2023-12-28T10:27:53;7.30;99.90
24836;DHT22;12915;57.650;12.044;2023-12-28T10:30:20;7.40;99.90
24836;DHT22;12915;57.650;12.044;2023-12-28T10:32:46;7.30;99.90
24836;DHT22;12915;57.650;12.044;2023-12-28T10:35:12;7.40;99.90
24836;DHT22;12915;57.650;12.044;2023-12-28T10:37:42;7.30;99.90
24836;DHT22;12915;57.650;12.044;2023-12-28T10:40:15;7.20;99.90
24836;DHT22;12915;57.650;12.044;2023-12-28T10:45:12;7.30;99.90
24836;DHT22;12915;57.650;12.044;2023-12-28T10:47:43;7.40;99.90
24836;DHT22;12915;57.650;12.044;2023-12-28T10:50:11;7.40;99.90
24836;DHT22;12915;57.650;12.044;2023-12-28T10:52:39;7.30;99.90
24836;DHT22;12915;57.650;12.044;2023-12-28T10:55:33;7.30;99.90
24836;DHT22;12915;57.650;12.044;2023-12-28T10:58:09;7.00;99.90
24836;DHT22;12915;57.650;12.044;2023-12-28T11:00:44;6.90;99.90
24836;DHT22;12915;57.650;12.044;2023-12-28T11:03:18;6.80;99.90
24836;DHT22;12915;57.650;12.044;2023-12-28T11:05:47;6.80;99.90
24836;DHT22;12915;57.650;12.044;2023-12-28T11:08:13;6.70;99.90
24836;DHT22;12915;57.650;12.044;2023-12-28T11:10:40;6.70;99.90
24836;DHT22;12915;57.650;12.044;2023-12-28T11:13:08;6.80;99.90
24836;DHT22;12915;57.650;12.044;2023-12-28T11:15:35;7.10;99.90
24836;DHT22;12915;57.650;12.044;2023-12-28T11:18:02;7.30;99.90
24836;DHT22;12915;57.650;12.044;2023-12-28T11:20:28;7.50;99.90
24836;DHT22;12915;57.650;12.044;2023-12-28T11:22:55;7.10;99.90
24836;DHT22;12915;57.650;12.044;2023-12-28T11:25:31;7.10;99.90
24836;DHT22;12915;57.650;12.044;2023-12-28T11:27:59;7.20;99.90
24836;DHT22;12915;57.650;12.044;2023-12-28T11:30:28;7.20;99.90
24836;DHT22;12915;57.650;12.044;2023-12-28T11:32:57;7.10;99.90
24836;DHT22;12915;57.650;12.044;2023-12-28T11:35:23;7.30;99.90
24836;DHT22;12915;57.650;12.044;2023-12-28T11:37:52;7.20;99.90
24836;DHT22;12915;57.650;12.044;2023-12-28T11:40:23;7.00;99.90
24836;DHT22;12915;57.650;12.044;2023-12-28T11:42:52;7.10;99.90
24836;DHT22;12915;57.650;12.044;2023-12-28T11:45:19;7.10;99.90
24836;DHT22;12915;57.650;12.044;2023-12-28T11:47:44;7.10;99.90
24836;DHT22;12915;57.650;12.044;2023-12-28T11:50:11;7.40;99.90
24836;DHT22;12915;57.650;12.044;2023-12-28T11:52:39;7.50;99.90
24836;DHT22;12915;57.650;12.044;2023-12-28T11:55:07;7.20;99.90
24836;DHT22;12915;57.650;12.044;2023-12-28T11:57:36;7.00;99.90
24836;DHT22;12915;57.650;12.044;2023-12-28T12:00:03;6.90;99.90
24836;DHT22;12915;57.650;12.044;2023-12-28T12:02:29;6.80;99.90
24836;DHT22;12915;57.650;12.044;2023-12-28T12:04:55;6.70;99.90
24836;DHT22;12915;57.650;12.044;2023-12-28T12:07:45;6.90;99.90
24836;DHT22;12915;57.650;12.044;2023-12-28T12:12:47;7.00;99.90
24836;DHT22;12915;57.650;12.044;2023-12-28T12:15:16;7.00;99.90
24836;DHT22;12915;57.650;12.044;2023-12-28T12:17:41;7.00;99.90
24836;DHT22;12915;57.650;12.044;2023-12-28T12:20:08;6.80;99.90
24836;DHT22;12915;57.650;12.044;2023-12-28T12:22:34;6.90;99.90
24836;DHT22;12915;57.650;12.044;2023-12-28T12:25:03;6.90;99.90
24836;DHT22;12915;57.650;12.044;2023-12-28T12:27:32;7.30;99.90
24836;DHT22;12915;57.650;12.044;2023-12-28T12:30:05;7.20;99.90
24836;DHT22;12915;57.650;12.044;2023-12-28T12:32:31;7.20;99.90
24836;DHT22;12915;57.650;12.044;2023-12-28T12:34:57;7.30;99.90
24836;DHT22;12915;57.650;12.044;2023-12-28T12:37:23;7.60;99.90
24836;DHT22;12915;57.650;12.044;2023-12-28T12:39:49;7.40;99.90
24836;DHT22;12915;57.650;12.044;2023-12-28T12:42:15;7.40;99.90
24836;DHT22;12915;57.650;12.044;2023-12-28T12:44:42;7.60;99.90
24836;DHT22;12915;57.650;12.044;2023-12-28T12:47:08;7.80;99.90
24836;DHT22;12915;57.650;12.044;2023-12-28T12:49:33;7.90;99.90
24836;DHT22;12915;57.650;12.044;2023-12-28T12:52:01;7.80;99.90
24836;DHT22;12915;57.650;12.044;2023-12-28T12:54:26;7.90;99.90
24836;DHT22;12915;57.650;12.044;2023-12-28T12:56:52;7.80;99.90
24836;DHT22;12915;57.650;12.044;2023-12-28T12:59:18;8.00;99.90
24836;DHT22;12915;57.650;12.044;2023-12-28T13:01:45;8.20;99.90
24836;DHT22;12915;57.650;12.044;2023-12-28T13:04:11;8.00;99.90
24836;DHT22;12915;57.650;12.044;2023-12-28T13:06:37;7.80;99.90
24836;DHT22;12915;57.650;12.044;2023-12-28T13:09:04;7.70;99.90
24836;DHT22;12915;57.650;12.044;2023-12-28T13:11:35;7.60;99.90
24836;DHT22;12915;57.650;12.044;2023-12-28T13:14:01;7.60;99.90
24836;DHT22;12915;57.650;12.044;2023-12-28T13:16:27;7.50;99.90
24836;DHT22;12915;57.650;12.044;2023-12-28T13:18:53;7.40;99.90
24836;DHT22;12915;57.650;12.044;2023-12-28T13:21:18;7.50;99.90
24836;DHT22;12915;57.650;12.044;2023-12-28T13:23:44;7.70;99.90
24836;DHT22;12915;57.650;12.044;2023-12-28T13:26:10;7.80;99.90
24836;DHT22;12915;57.650;12.044;2023-12-28T13:28:35;7.90;99.90
24836;DHT22;12915;57.650;12.044;2023-12-28T13:31:01;7.80;99.90
24836;DHT22;12915;57.650;12.044;2023-12-28T13:33:27;7.90;99.90
24836;DHT22;12915;57.650;12.044;2023-12-28T13:39:11;7.70;99.90
24836;DHT22;12915;57.650;12.044;2023-12-28T13:41:40;7.60;99.90
24836;DHT22;12915;57.650;12.044;2023-12-28T13:44:06;7.60;99.90
24836;DHT22;12915;57.650;12.044;2023-12-28T13:46:36;7.50;99.90
24836;DHT22;12915;57.650;12.044;2023-12-28T13:49:02;7.50;99.90
24836;DHT22;12915;57.650;12.044;2023-12-28T13:51:29;7.60;99.90
24836;DHT22;12915;57.650;12.044;2023-12-28T13:54:01;7.30;99.90
24836;DHT22;12915;57.650;12.044;2023-12-28T13:56:27;7.50;99.90
24836;DHT22;12915;57.650;12.044;2023-12-28T13:58:54;7.40;99.90
24836;DHT22;12915;57.650;12.044;2023-12-28T14:01:20;7.30;99.90
24836;DHT22;12915;57.650;12.044;2023-12-28T14:03:46;7.70;99.90
24836;DHT22;12915;57.650;12.044;2023-12-28T14:06:13;7.70;99.90
24836;DHT22;12915;57.650;12.044;2023-12-28T14:08:41;7.80;99.90
24836;DHT22;12915;57.650;12.044;2023-12-28T14:11:06;7.70;99.90
24836;DHT22;12915;57.650;12.044;2023-12-28T14:13:32;7.80;99.90
24836;DHT22;12915;57.650;12.044;2023-12-28T14:16:00;7.70;99.90
24836;DHT22;12915;57.650;12.044;2023-12-28T14:18:25;7.60;99.90
24836;DHT22;12915;57.650;12.044;2023-12-28T14:20:51;7.70;99.90
24836;DHT22;12915;57.650;12.044;2023-12-28T14:23:17;7.50;99.90
24836;DHT22;12915;57.650;12.044;2023-12-28T14:25:43;7.80;99.90
24836;DHT22;12915;57.650;12.044;2023-12-28T14:28:10;8.00;99.90
24836;DHT22;12915;57.650;12.044;2023-12-28T14:30:36;8.00;99.90
24836;DHT22;12915;57.650;12.044;2023-12-28T14:33:02;8.00;99.90
24836;DHT22;12915;57.650;12.044;2023-12-28T14:35:28;8.00;99.90
24836;DHT22;12915;57.650;12.044;2023-12-28T14:37:54;8.00;99.90
24836;DHT22;12915;57.650;12.044;2023-12-28T14:40:19;8.00;99.90
24836;DHT22;12915;57.650;12.044;2023-12-28T14:42:45;7.90;99.90
24836;DHT22;12915;57.650;12.044;2023-12-28T14:45:10;7.90;99.90
24836;DHT22;12915;57.650;12.044;2023-12-28T14:47:36;8.10;99.90
24836;DHT22;12915;57.650;12.044;2023-12-28T14:50:02;8.30;99.90
24836;DHT22;12915;57.650;12.044;2023-12-28T14:52:30;8.40;99.90
24836;DHT22;12915;57.650;12.044;2023-12-28T14:54:56;8.50;99.90
24836;DHT22;12915;57.650;12.044;2023-12-28T14:57:22;8.30;99.90
24836;DHT22;12915;57.650;12.044;2023-12-28T14:59:48;8.40;99.90
24836;DHT22;12915;57.650;12.044;2023-12-28T15:02:13;8.50;99.90
24836;DHT22;12915;57.650;12.044;2023-12-28T15:04:39;8.50;99.90
24836;DHT22;12915;57.650;12.044;2023-12-28T15:07:06;8.70;99.90
24836;DHT22;12915;57.650;12.044;2023-12-28T15:09:32;8.90;99.90
24836;DHT22;12915;57.650;12.044;2023-12-28T15:11:59;8.80;99.90
24836;DHT22;12915;57.650;12.044;2023-12-28T15:14:25;8.80;99.90
24836;DHT22;12915;57.650;12.044;2023-12-28T15:16:51;8.70;99.90
24836;DHT22;12915;57.650;12.044;2023-12-28T15:19:17;8.70;99.90
24836;DHT22;12915;57.650;12.044;2023-12-28T15:21:43;8.70;99.90
24836;DHT22;12915;57.650;12.044;2023-12-28T15:24:09;8.90;99.90
24836;DHT22;12915;57.650;12.044;2023-12-28T15:26:35;8.90;99.90
24836;DHT22;12915;57.650;12.044;2023-12-28T15:29:02;9.20;99.90
24836;DHT22;12915;57.650;12.044;2023-12-28T15:31:28;9.30;99.90
24836;DHT22;12915;57.650;12.044;2023-12-28T15:33:55;9.40;99.90
24836;DHT22;12915;57.650;12.044;2023-12-28T15:36:21;9.30;99.90
24836;DHT22;12915;57.650;12.044;2023-12-28T15:38:47;9.20;99.90
24836;DHT22;12915;57.650;12.044;2023-12-28T15:41:13;9.30;99.90
24836;DHT22;12915;57.650;12.044;2023-12-28T15:43:39;9.40;99.90